Cameron, SC

3:43 PM EST on December 04, 2016 (GMT -0500)
Houck Farm | | Change Station

Elev 971 ft 33.51 °N, 80.67 °W | Updated 37 seconds ago

Light Rain
Light Rain
49.8 °F
Feels Like 50 °F
N
0.0
Wind Variable Wind from ESE
Gusts 0.0 mph

Today
High -- | Low -- °F
--% Chance of Precip.
Yesterday
High -- | Low -- °F
Precip. -- in
Pressure 30.13 in
Visibility 7.0 miles
Clouds Few 2000 ft
Mostly Cloudy 3500 ft
Overcast 5500 ft
Windchill 50 °F
Dew Point 46 °F
Humidity 86%
Rainfall 0.00 in
Snow Depth Not available.
7:11 AM 5:14 PM
Waxing Crescent, 25% visible
METAR KOGB 041953Z AUTO 06006KT 7SM -RA FEW020 BKN035 OVC055 09/06 A3013 RMK AO2 RAB16 SLP203 P0000 T00940061
Pressure 30.13 in
Visibility 7.0 miles
Clouds Few 2000 ft
Mostly Cloudy 3500 ft
Overcast 5500 ft
Windchill 50 °F
Dew Point 46 °F
Humidity 86%
Rainfall 0.00 in
Snow Depth Not available.
7:11 AM 5:14 PM
Waxing Crescent, 25% visible
METAR KOGB 041953Z AUTO 06006KT 7SM -RA FEW020 BKN035 OVC055 09/06 A3013 RMK AO2 RAB16 SLP203 P0000 T00940061

10-Day Weather Forecast

Almanac

Astronomy

Dec. 04, 2016 Rise Set
Actual Time
Civil Twilight
Nautical Twilight
Astronomical Twilight
Moon
Length of Visible Light
Length of Day
Tomorrow will be .
, % of the Moon is Illuminated

Today's Extremes

State Highs State Lows

Community

WunderPhotos

Upload Photos

1,955,667 photos uploaded!

WunderBlog® & News

Nearby

Air Quality

  Air Quality AQ Index Pollutant
Not available.

Snow Depth

Station Depth Elevation

Earthquake Activity

City Distance Mag. Time & Date
Minimum magnitude displayed is 2.5.

Coastal Water Temperatures

Place Temperature

Stations

Nearby Weather Stations

Station Location Temp. Windchill Dew Point Humidity Wind Precip. Elev Updated Type
                   

Watches & Warnings

There are currently no watches in effect.